sensor_id;sensor_type;location;lat;lon;timestamp;pressure;altitude;pressure_sealevel;temperature;humidity
28626;BME280;18905;42.668;23.364;2023-04-15T00:01:06;94268.94;;;8.79;100.00
28626;BME280;18905;42.668;23.364;2023-04-15T00:03:32;94198.03;;;8.26;100.00
28626;BME280;18905;42.668;23.364;2023-04-15T00:05:59;94325.00;;;9.06;100.00
28626;BME280;18905;42.668;23.364;2023-04-15T00:08:30;94164.97;;;8.17;100.00
28626;BME280;18905;42.668;23.364;2023-04-15T00:10:59;94343.16;;;9.18;100.00
28626;BME280;18905;42.668;23.364;2023-04-15T00:13:30;94367.28;;;8.31;100.00
28626;BME280;18905;42.668;23.364;2023-04-15T00:16:02;94185.34;;;7.26;100.00
28626;BME280;18905;42.668;23.364;2023-04-15T00:18:31;94253.22;;;7.52;100.00
28626;BME280;18905;42.668;23.364;2023-04-15T00:21:00;94345.75;;;8.31;100.00
28626;BME280;18905;42.668;23.364;2023-04-15T00:23:26;94207.69;;;7.64;100.00
28626;BME280;18905;42.668;23.364;2023-04-15T00:25:55;94246.00;;;7.98;100.00
28626;BME280;18905;42.668;23.364;2023-04-15T00:28:24;94199.50;;;7.98;100.00
28626;BME280;18905;42.668;23.364;2023-04-15T00:30:50;94344.38;;;9.00;100.00
28626;BME280;18905;42.668;23.364;2023-04-15T00:33:15;94344.44;;;9.12;100.00
28626;BME280;18905;42.668;23.364;2023-04-15T00:35:42;94346.03;;;9.13;100.00
28626;BME280;18905;42.668;23.364;2023-04-15T00:38:11;94334.16;;;9.05;100.00
28626;BME280;18905;42.668;23.364;2023-04-15T00:40:37;94296.19;;;8.40;100.00
28626;BME280;18905;42.668;23.364;2023-04-15T00:43:03;94273.47;;;8.29;100.00
28626;BME280;18905;42.668;23.364;2023-04-15T00:45:30;94298.50;;;8.59;100.00
28626;BME280;18905;42.668;23.364;2023-04-15T00:47:59;94223.47;;;8.20;100.00
28626;BME280;18905;42.668;23.364;2023-04-15T00:50:25;94266.47;;;8.66;100.00
28626;BME280;18905;42.668;23.364;2023-04-15T00:52:53;94288.56;;;8.80;100.00
28626;BME280;18905;42.668;23.364;2023-04-15T00:55:19;94265.13;;;8.51;100.00
28626;BME280;18905;42.668;23.364;2023-04-15T00:57:55;94218.75;;;8.17;100.00
28626;BME280;18905;42.668;23.364;2023-04-15T01:00:22;94308.44;;;8.96;100.00
28626;BME280;18905;42.668;23.364;2023-04-15T01:02:48;94267.53;;;8.44;100.00
28626;BME280;18905;42.668;23.364;2023-04-15T01:05:16;94307.94;;;8.65;100.00
28626;BME280;18905;42.668;23.364;2023-04-15T01:07:43;94268.84;;;8.30;100.00
28626;BME280;18905;42.668;23.364;2023-04-15T01:10:11;94366.91;;;8.87;100.00
28626;BME280;18905;42.668;23.364;2023-04-15T01:12:40;94327.84;;;8.72;100.00
28626;BME280;18905;42.668;23.364;2023-04-15T01:15:08;94274.47;;;8.45;100.00
28626;BME280;18905;42.668;23.364;2023-04-15T01:17:35;94363.06;;;8.96;100.00
28626;BME280;18905;42.668;23.364;2023-04-15T01:20:05;94275.22;;;8.54;100.00
28626;BME280;18905;42.668;23.364;2023-04-15T01:22:35;94259.09;;;8.54;100.00
28626;BME280;18905;42.668;23.364;2023-04-15T01:25:16;94202.22;;;8.35;100.00
28626;BME280;18905;42.668;23.364;2023-04-15T01:27:45;94199.81;;;8.42;100.00
28626;BME280;18905;42.668;23.364;2023-04-15T01:30:12;94208.28;;;8.53;100.00
28626;BME280;18905;42.668;23.364;2023-04-15T01:32:38;94211.59;;;8.58;100.00
28626;BME280;18905;42.668;23.364;2023-04-15T01:35:07;94249.59;;;8.86;100.00
28626;BME280;18905;42.668;23.364;2023-04-15T01:37:36;94226.28;;;8.61;100.00
28626;BME280;18905;42.668;23.364;2023-04-15T01:40:06;94193.59;;;8.50;100.00
28626;BME280;18905;42.668;23.364;2023-04-15T01:42:35;94255.09;;;8.89;100.00
28626;BME280;18905;42.668;23.364;2023-04-15T01:45:05;94287.34;;;8.98;100.00
28626;BME280;18905;42.668;23.364;2023-04-15T01:47:37;94309.94;;;8.76;100.00
28626;BME280;18905;42.668;23.364;2023-04-15T01:50:04;94269.19;;;8.20;100.00
28626;BME280;18905;42.668;23.364;2023-04-15T01:52:33;94246.19;;;7.93;100.00
28626;BME280;18905;42.668;23.364;2023-04-15T01:54:59;94262.09;;;8.07;100.00
28626;BME280;18905;42.668;23.364;2023-04-15T01:57:25;94240.44;;;8.12;100.00
28626;BME280;18905;42.668;23.364;2023-04-15T01:59:53;94244.19;;;8.19;100.00
28626;BME280;18905;42.668;23.364;2023-04-15T02:02:20;94244.06;;;8.24;100.00
28626;BME280;18905;42.668;23.364;2023-04-15T02:04:48;94334.28;;;8.88;100.00
28626;BME280;18905;42.668;23.364;2023-04-15T02:07:15;94238.44;;;8.38;100.00
28626;BME280;18905;42.668;23.364;2023-04-15T02:09:44;94362.59;;;9.23;100.00
28626;BME280;18905;42.668;23.364;2023-04-15T02:12:13;94365.34;;;9.15;100.00
28626;BME280;18905;42.668;23.364;2023-04-15T02:14:39;94223.31;;;8.25;100.00
28626;BME280;18905;42.668;23.364;2023-04-15T02:17:08;94281.69;;;8.62;100.00
28626;BME280;18905;42.668;23.364;2023-04-15T02:19:37;94367.84;;;8.91;100.00
28626;BME280;18905;42.668;23.364;2023-04-15T02:22:03;94214.06;;;7.97;100.00
28626;BME280;18905;42.668;23.364;2023-04-15T02:24:35;94322.47;;;8.81;100.00
28626;BME280;18905;42.668;23.364;2023-04-15T02:27:01;94337.84;;;8.72;100.00
28626;BME280;18905;42.668;23.364;2023-04-15T02:29:28;94359.03;;;8.19;100.00
28626;BME280;18905;42.668;23.364;2023-04-15T02:32:03;94303.13;;;7.70;100.00
28626;BME280;18905;42.668;23.364;2023-04-15T02:34:31;94349.72;;;8.08;100.00
28626;BME280;18905;42.668;23.364;2023-04-15T02:37:07;94344.06;;;7.75;100.00
28626;BME280;18905;42.668;23.364;2023-04-15T02:39:36;94343.78;;;7.51;100.00
28626;BME280;18905;42.668;23.364;2023-04-15T02:42:05;94207.91;;;6.74;100.00
28626;BME280;18905;42.668;23.364;2023-04-15T02:44:32;94239.44;;;6.60;100.00
28626;BME280;18905;42.668;23.364;2023-04-15T02:47:01;94360.31;;;7.19;100.00
28626;BME280;18905;42.668;23.364;2023-04-15T02:49:30;94351.97;;;7.55;100.00
28626;BME280;18905;42.668;23.364;2023-04-15T02:51:56;94350.53;;;7.66;100.00
28626;BME280;18905;42.668;23.364;2023-04-15T02:54:25;94262.41;;;7.17;100.00
28626;BME280;18905;42.668;23.364;2023-04-15T02:56:56;94357.16;;;7.09;100.00
28626;BME280;18905;42.668;23.364;2023-04-15T02:59:25;94374.38;;;6.69;100.00
28626;BME280;18905;42.668;23.364;2023-04-15T03:01:51;94397.66;;;6.21;100.00
28626;BME280;18905;42.668;23.364;2023-04-15T03:04:19;94217.34;;;5.15;100.00
28626;BME280;18905;42.668;23.364;2023-04-15T03:06:51;94239.69;;;5.11;100.00
28626;BME280;18905;42.668;23.364;2023-04-15T03:09:17;94229.84;;;4.84;100.00
28626;BME280;18905;42.668;23.364;2023-04-15T03:11:46;94273.97;;;4.73;100.00
28626;BME280;18905;42.668;23.364;2023-04-15T03:14:12;94386.38;;;5.44;100.00
28626;BME280;18905;42.668;23.364;2023-04-15T03:16:42;94307.44;;;5.20;100.00
28626;BME280;18905;42.668;23.364;2023-04-15T03:19:08;94376.28;;;5.85;100.00
28626;BME280;18905;42.668;23.364;2023-04-15T03:21:34;94398.94;;;6.23;100.00
28626;BME280;18905;42.668;23.364;2023-04-15T03:24:04;94416.22;;;6.39;100.00
28626;BME280;18905;42.668;23.364;2023-04-15T03:26:31;94306.41;;;5.95;100.00
28626;BME280;18905;42.668;23.364;2023-04-15T03:29:01;94314.81;;;5.80;100.00
28626;BME280;18905;42.668;23.364;2023-04-15T03:31:31;94323.81;;;6.15;100.00
28626;BME280;18905;42.668;23.364;2023-04-15T03:33:57;94280.53;;;5.69;100.00
28626;BME280;18905;42.668;23.364;2023-04-15T03:36:27;94416.19;;;6.70;100.00
28626;BME280;18905;42.668;23.364;2023-04-15T03:38:53;94427.56;;;6.67;100.00
28626;BME280;18905;42.668;23.364;2023-04-15T03:41:20;94291.25;;;5.91;100.00
28626;BME280;18905;42.668;23.364;2023-04-15T03:43:53;94411.41;;;6.58;100.00
28626;BME280;18905;42.668;23.364;2023-04-15T03:46:22;94367.47;;;6.37;100.00
28626;BME280;18905;42.668;23.364;2023-04-15T03:48:48;94416.16;;;6.61;100.00
28626;BME280;18905;42.668;23.364;2023-04-15T03:51:14;94440.03;;;6.71;100.00
28626;BME280;18905;42.668;23.364;2023-04-15T03:53:45;94312.72;;;5.77;100.00
28626;BME280;18905;42.668;23.364;2023-04-15T03:56:11;94442.59;;;6.76;100.00
28626;BME280;18905;42.668;23.364;2023-04-15T03:58:37;94345.50;;;6.27;100.00
28626;BME280;18905;42.668;23.364;2023-04-15T04:01:03;94329.59;;;6.00;100.00
28626;BME280;18905;42.668;23.364;2023-04-15T04:03:32;94350.41;;;6.33;100.00
28626;BME280;18905;42.668;23.364;2023-04-15T04:05:59;94429.41;;;6.97;100.00
28626;BME280;18905;42.668;23.364;2023-04-15T04:08:25;94409.16;;;6.82;100.00
28626;BME280;18905;42.668;23.364;2023-04-15T04:10:52;94341.19;;;6.48;100.00
28626;BME280;18905;42.668;23.364;2023-04-15T04:13:18;94352.94;;;6.69;100.00
28626;BME280;18905;42.668;23.364;2023-04-15T04:15:44;94290.25;;;6.48;100.00
28626;BME280;18905;42.668;23.364;2023-04-15T04:18:10;94443.31;;;7.55;100.00
28626;BME280;18905;42.668;23.364;2023-04-15T04:20:36;94294.25;;;6.76;100.00
28626;BME280;18905;42.668;23.364;2023-04-15T04:23:06;94409.03;;;7.60;100.00
28626;BME280;18905;42.668;23.364;2023-04-15T04:25:32;94354.03;;;7.58;100.00
28626;BME280;18905;42.668;23.364;2023-04-15T04:28:01;94302.69;;;10.00;100.00
28626;BME280;18905;42.668;23.364;2023-04-15T04:30:27;94433.00;;;14.16;100.00
28626;BME280;18905;42.668;23.364;2023-04-15T04:32:53;94430.81;;;16.40;81.65
28626;BME280;18905;42.668;23.364;2023-04-15T04:35:19;94306.88;;;17.03;64.15
28626;BME280;18905;42.668;23.364;2023-04-15T04:37:44;94357.97;;;18.93;56.48
28626;BME280;18905;42.668;23.364;2023-04-15T04:40:10;94433.56;;;20.48;51.62
28626;BME280;18905;42.668;23.364;2023-04-15T04:42:36;94427.59;;;20.92;48.98
28626;BME280;18905;42.668;23.364;2023-04-15T04:45:01;94413.88;;;20.84;46.77
28626;BME280;18905;42.668;23.364;2023-04-15T04:47:27;94438.31;;;20.26;48.27
28626;BME280;18905;42.668;23.364;2023-04-15T04:49:52;94446.94;;;20.42;47.94
28626;BME280;18905;42.668;23.364;2023-04-15T04:52:18;94440.25;;;19.59;48.66
28626;BME280;18905;42.668;23.364;2023-04-15T04:54:43;94429.41;;;18.74;49.34
28626;BME280;18905;42.668;23.364;2023-04-15T04:57:08;94441.25;;;19.02;49.91
28626;BME280;18905;42.668;23.364;2023-04-15T04:59:34;94458.25;;;19.53;48.86
28626;BME280;18905;42.668;23.364;2023-04-15T05:01:59;94468.84;;;19.86;48.14
28626;BME280;18905;42.668;23.364;2023-04-15T05:04:25;94451.56;;;19.33;48.43
28626;BME280;18905;42.668;23.364;2023-04-15T05:06:50;94463.84;;;18.78;49.80
28626;BME280;18905;42.668;23.364;2023-04-15T05:09:16;94471.69;;;18.87;50.22
28626;BME280;18905;42.668;23.364;2023-04-15T05:11:41;94456.41;;;17.67;52.92
28626;BME280;18905;42.668;23.364;2023-04-15T05:14:07;94480.09;;;17.56;54.18
28626;BME280;18905;42.668;23.364;2023-04-15T05:16:32;94477.97;;;16.21;55.13
28626;BME280;18905;42.668;23.364;2023-04-15T05:18:57;94471.69;;;16.69;55.64
28626;BME280;18905;42.668;23.364;2023-04-15T05:21:24;94496.09;;;17.58;52.19
28626;BME280;18905;42.668;23.364;2023-04-15T05:23:50;94497.88;;;17.40;51.84
28626;BME280;18905;42.668;23.364;2023-04-15T05:26:15;94495.53;;;17.42;52.70
28626;BME280;18905;42.668;23.364;2023-04-15T05:28:41;94463.69;;;17.53;52.65
28626;BME280;18905;42.668;23.364;2023-04-15T05:31:07;94478.09;;;17.97;50.65
28626;BME280;18905;42.668;23.364;2023-04-15T05:33:32;94496.75;;;17.88;51.89
28626;BME280;18905;42.668;23.364;2023-04-15T05:35:58;94497.56;;;17.88;52.25
28626;BME280;18905;42.668;23.364;2023-04-15T05:38:23;94491.03;;;18.03;51.03
28626;BME280;18905;42.668;23.364;2023-04-15T05:40:48;94471.66;;;18.19;50.98
28626;BME280;18905;42.668;23.364;2023-04-15T05:43:14;94488.59;;;18.38;49.51
28626;BME280;18905;42.668;23.364;2023-04-15T05:45:39;94481.88;;;16.20;53.59
28626;BME280;18905;42.668;23.364;2023-04-15T05:48:05;94453.34;;;15.40;57.00
28626;BME280;18905;42.668;23.364;2023-04-15T05:50:31;94489.56;;;15.44;56.47
28626;BME280;18905;42.668;23.364;2023-04-15T05:52:56;94493.47;;;15.91;55.62
28626;BME280;18905;42.668;23.364;2023-04-15T05:55:22;94481.97;;;16.53;53.28
28626;BME280;18905;42.668;23.364;2023-04-15T05:57:47;94488.28;;;17.20;51.14
28626;BME280;18905;42.668;23.364;2023-04-15T06:00:13;94510.72;;;17.79;49.54
28626;BME280;18905;42.668;23.364;2023-04-15T06:02:39;94483.63;;;16.61;50.88
28626;BME280;18905;42.668;23.364;2023-04-15T06:05:05;94497.34;;;16.16;53.54
28626;BME280;18905;42.668;23.364;2023-04-15T06:07:35;94503.69;;;15.75;54.59
28626;BME280;18905;42.668;23.364;2023-04-15T06:10:02;94505.13;;;15.05;58.34
28626;BME280;18905;42.668;23.364;2023-04-15T06:12:27;94514.97;;;15.32;57.86
28626;BME280;18905;42.668;23.364;2023-04-15T06:14:53;94501.91;;;16.09;56.56
28626;BME280;18905;42.668;23.364;2023-04-15T06:17:18;94489.97;;;16.69;54.80
28626;BME280;18905;42.668;23.364;2023-04-15T06:19:43;94515.66;;;17.30;78.31
28626;BME280;18905;42.668;23.364;2023-04-15T06:22:09;94503.09;;;18.46;78.37
28626;BME280;18905;42.668;23.364;2023-04-15T06:24:34;94501.59;;;18.55;57.20
28626;BME280;18905;42.668;23.364;2023-04-15T06:27:01;94518.22;;;18.94;60.66
28626;BME280;18905;42.668;23.364;2023-04-15T06:29:27;94527.75;;;19.21;52.09
28626;BME280;18905;42.668;23.364;2023-04-15T06:31:53;94526.75;;;19.74;52.96
28626;BME280;18905;42.668;23.364;2023-04-15T06:34:18;94537.81;;;20.51;50.68
28626;BME280;18905;42.668;23.364;2023-04-15T06:36:43;94529.06;;;21.13;50.53
28626;BME280;18905;42.668;23.364;2023-04-15T06:39:09;94542.88;;;20.35;48.53
28626;BME280;18905;42.668;23.364;2023-04-15T06:41:35;94536.97;;;21.00;46.69
28626;BME280;18905;42.668;23.364;2023-04-15T06:44:00;94547.09;;;21.14;44.92
28626;BME280;18905;42.668;23.364;2023-04-15T06:46:26;94543.66;;;21.92;47.65
28626;BME280;18905;42.668;23.364;2023-04-15T06:48:51;94540.84;;;21.17;47.90
28626;BME280;18905;42.668;23.364;2023-04-15T06:51:18;94546.00;;;21.90;46.10
28626;BME280;18905;42.668;23.364;2023-04-15T06:53:43;94551.22;;;21.64;45.23
28626;BME280;18905;42.668;23.364;2023-04-15T06:56:09;94549.75;;;22.21;42.64
28626;BME280;18905;42.668;23.364;2023-04-15T06:58:35;94534.44;;;21.48;45.00
28626;BME280;18905;42.668;23.364;2023-04-15T07:01:00;94530.31;;;21.84;44.90
28626;BME280;18905;42.668;23.364;2023-04-15T07:03:26;94541.88;;;22.23;43.04
28626;BME280;18905;42.668;23.364;2023-04-15T07:05:51;94537.16;;;22.71;44.05
28626;BME280;18905;42.668;23.364;2023-04-15T07:08:18;94540.91;;;22.91;42.73
28626;BME280;18905;42.668;23.364;2023-04-15T07:10:45;94547.19;;;23.32;42.66
28626;BME280;18905;42.668;23.364;2023-04-15T07:13:11;94564.19;;;23.57;41.05
28626;BME280;18905;42.668;23.364;2023-04-15T07:15:36;94542.50;;;23.29;41.15
28626;BME280;18905;42.668;23.364;2023-04-15T07:18:02;94557.47;;;23.28;40.30
28626;BME280;18905;42.668;23.364;2023-04-15T07:20:27;94553.72;;;23.08;39.36
28626;BME280;18905;42.668;23.364;2023-04-15T07:22:53;94546.34;;;22.57;41.42
28626;BME280;18905;42.668;23.364;2023-04-15T07:25:19;94553.13;;;22.90;39.57
28626;BME280;18905;42.668;23.364;2023-04-15T07:27:45;94552.72;;;21.86;40.91
28626;BME280;18905;42.668;23.364;2023-04-15T07:30:10;94562.88;;;20.25;43.71
28626;BME280;18905;42.668;23.364;2023-04-15T07:32:37;94548.53;;;21.53;45.52
28626;BME280;18905;42.668;23.364;2023-04-15T07:35:02;94559.31;;;20.99;46.69
28626;BME280;18905;42.668;23.364;2023-04-15T07:37:28;94531.53;;;20.37;45.59
28626;BME280;18905;42.668;23.364;2023-04-15T07:39:54;94549.91;;;20.12;50.71
28626;BME280;18905;42.668;23.364;2023-04-15T07:42:20;94542.03;;;20.98;49.00
28626;BME280;18905;42.668;23.364;2023-04-15T07:44:45;94536.16;;;20.78;47.19
28626;BME280;18905;42.668;23.364;2023-04-15T07:47:11;94551.03;;;20.00;50.21
28626;BME280;18905;42.668;23.364;2023-04-15T07:49:36;94551.50;;;20.34;49.78
28626;BME280;18905;42.668;23.364;2023-04-15T07:52:02;94542.84;;;19.90;46.35
28626;BME280;18905;42.668;23.364;2023-04-15T07:54:28;94558.41;;;19.58;48.20
28626;BME280;18905;42.668;23.364;2023-04-15T07:56:53;94538.53;;;20.06;49.69
28626;BME280;18905;42.668;23.364;2023-04-15T07:59:19;94571.09;;;20.43;48.88
28626;BME280;18905;42.668;23.364;2023-04-15T08:01:44;94580.88;;;20.61;46.82
28626;BME280;18905;42.668;23.364;2023-04-15T08:04:10;94557.13;;;18.63;48.29
28626;BME280;18905;42.668;23.364;2023-04-15T08:06:36;94556.66;;;18.54;48.11
28626;BME280;18905;42.668;23.364;2023-04-15T08:09:04;94553.31;;;16.88;54.24
28626;BME280;18905;42.668;23.364;2023-04-15T08:11:29;94568.50;;;17.48;50.66
28626;BME280;18905;42.668;23.364;2023-04-15T08:13:55;94553.63;;;17.79;50.64
28626;BME280;18905;42.668;23.364;2023-04-15T08:16:22;94569.50;;;18.06;50.26
28626;BME280;18905;42.668;23.364;2023-04-15T08:18:49;94577.69;;;17.04;53.53
28626;BME280;18905;42.668;23.364;2023-04-15T08:21:17;94578.94;;;17.39;49.74
28626;BME280;18905;42.668;23.364;2023-04-15T08:23:44;94561.47;;;17.14;51.42
28626;BME280;18905;42.668;23.364;2023-04-15T08:26:10;94557.94;;;16.32;53.70
28626;BME280;18905;42.668;23.364;2023-04-15T08:28:38;94568.16;;;17.20;51.58
28626;BME280;18905;42.668;23.364;2023-04-15T08:31:04;94554.63;;;17.60;49.87
28626;BME280;18905;42.668;23.364;2023-04-15T08:33:29;94557.13;;;18.16;51.42
28626;BME280;18905;42.668;23.364;2023-04-15T08:35:54;94549.53;;;17.95;50.92
28626;BME280;18905;42.668;23.364;2023-04-15T08:38:20;94538.16;;;17.93;50.77
28626;BME280;18905;42.668;23.364;2023-04-15T08:40:46;94536.59;;;17.19;49.89
28626;BME280;18905;42.668;23.364;2023-04-15T08:43:23;94539.00;;;17.97;50.54
28626;BME280;18905;42.668;23.364;2023-04-15T08:45:53;94416.91;;;16.48;51.19
28626;BME280;18905;42.668;23.364;2023-04-15T08:48:19;94545.59;;;17.56;51.41
28626;BME280;18905;42.668;23.364;2023-04-15T08:50:47;94518.81;;;16.99;54.98
28626;BME280;18905;42.668;23.364;2023-04-15T08:53:13;94382.34;;;15.71;53.90
28626;BME280;18905;42.668;23.364;2023-04-15T08:55:50;94425.63;;;16.05;52.71
28626;BME280;18905;42.668;23.364;2023-04-15T08:58:16;94540.72;;;17.72;50.67
28626;BME280;18905;42.668;23.364;2023-04-15T09:00:44;94423.75;;;16.09;51.03
28626;BME280;18905;42.668;23.364;2023-04-15T09:03:10;94527.44;;;17.05;52.15
28626;BME280;18905;42.668;23.364;2023-04-15T09:05:36;94466.97;;;16.66;54.13
28626;BME280;18905;42.668;23.364;2023-04-15T09:08:03;94387.00;;;16.26;47.13
28626;BME280;18905;42.668;23.364;2023-04-15T09:10:30;94380.34;;;16.23;50.15
28626;BME280;18905;42.668;23.364;2023-04-15T09:12:57;94385.41;;;16.84;44.37
28626;BME280;18905;42.668;23.364;2023-04-15T09:15:27;94530.72;;;17.90;54.27
28626;BME280;18905;42.668;23.364;2023-04-15T09:17:55;94519.59;;;18.09;44.49
28626;BME280;18905;42.668;23.364;2023-04-15T09:20:21;94416.91;;;17.54;47.04
28626;BME280;18905;42.668;23.364;2023-04-15T09:22:50;94377.78;;;17.40;44.31
28626;BME280;18905;42.668;23.364;2023-04-15T09:28:01;94508.53;;;19.10;50.85
28626;BME280;18905;42.668;23.364;2023-04-15T09:30:27;94515.41;;;21.88;50.95
28626;BME280;18905;42.668;23.364;2023-04-15T09:32:54;94525.88;;;19.46;40.04
28626;BME280;18905;42.668;23.364;2023-04-15T09:35:20;94512.47;;;17.98;40.80
28626;BME280;18905;42.668;23.364;2023-04-15T09:37:47;94502.72;;;18.51;40.48
28626;BME280;18905;42.668;23.364;2023-04-15T09:40:12;94507.34;;;18.36;40.95
28626;BME280;18905;42.668;23.364;2023-04-15T09:42:56;94506.56;;;18.43;41.80
28626;BME280;18905;42.668;23.364;2023-04-15T09:45:22;94510.41;;;18.92;40.37
28626;BME280;18905;42.668;23.364;2023-04-15T09:47:48;94509.28;;;19.11;40.02
28626;BME280;18905;42.668;23.364;2023-04-15T09:50:15;94505.03;;;18.45;40.43
28626;BME280;18905;42.668;23.364;2023-04-15T09:52:42;94524.88;;;18.35;40.58
28626;BME280;18905;42.668;23.364;2023-04-15T09:55:08;94512.91;;;18.54;40.12
28626;BME280;18905;42.668;23.364;2023-04-15T09:57:35;94523.41;;;19.13;39.56
28626;BME280;18905;42.668;23.364;2023-04-15T10:00:06;94499.84;;;18.98;39.70
28626;BME280;18905;42.668;23.364;2023-04-15T10:02:33;94526.88;;;19.06;40.29
28626;BME280;18905;42.668;23.364;2023-04-15T10:05:00;94520.97;;;18.97;38.61
28626;BME280;18905;42.668;23.364;2023-04-15T10:07:26;94514.25;;;18.23;39.25
28626;BME280;18905;42.668;23.364;2023-04-15T10:09:52;94492.97;;;17.23;42.53
28626;BME280;18905;42.668;23.364;2023-04-15T10:12:18;94509.22;;;17.12;43.24
28626;BME280;18905;42.668;23.364;2023-04-15T10:14:47;94499.47;;;17.44;41.48
28626;BME280;18905;42.668;23.364;2023-04-15T10:17:17;94497.38;;;17.34;42.39
28626;BME280;18905;42.668;23.364;2023-04-15T10:19:43;94502.47;;;17.03;43.24
28626;BME280;18905;42.668;23.364;2023-04-15T10:22:09;94492.72;;;17.35;42.07
28626;BME280;18905;42.668;23.364;2023-04-15T10:24:34;94485.13;;;17.18;42.30
28626;BME280;18905;42.668;23.364;2023-04-15T10:27:02;94483.53;;;17.90;40.59
28626;BME280;18905;42.668;23.364;2023-04-15T10:29:28;94472.28;;;18.52;39.72
28626;BME280;18905;42.668;23.364;2023-04-15T10:31:54;94478.28;;;18.79;38.41
28626;BME280;18905;42.668;23.364;2023-04-15T10:34:22;94450.41;;;18.49;38.29
28626;BME280;18905;42.668;23.364;2023-04-15T10:36:49;94458.34;;;18.75;39.77
28626;BME280;18905;42.668;23.364;2023-04-15T10:42:15;94475.78;;;17.99;41.77
28626;BME280;18905;42.668;23.364;2023-04-15T10:44:48;94466.88;;;18.09;41.30
28626;BME280;18905;42.668;23.364;2023-04-15T10:47:18;94466.25;;;17.39;42.38
28626;BME280;18905;42.668;23.364;2023-04-15T10:49:47;94472.75;;;17.27;44.31
28626;BME280;18905;42.668;23.364;2023-04-15T10:52:14;94474.16;;;17.87;43.53
28626;BME280;18905;42.668;23.364;2023-04-15T10:54:40;94468.47;;;17.66;43.08
28626;BME280;18905;42.668;23.364;2023-04-15T11:05:03;94468.34;;;18.46;41.57
28626;BME280;18905;42.668;23.364;2023-04-15T11:12:43;94464.88;;;19.35;38.91
28626;BME280;18905;42.668;23.364;2023-04-15T11:15:34;94461.00;;;18.03;39.90
28626;BME280;18905;42.668;23.364;2023-04-15T11:20:36;94461.94;;;17.74;40.20
28626;BME280;18905;42.668;23.364;2023-04-15T11:23:02;94450.38;;;17.91;39.65
28626;BME280;18905;42.668;23.364;2023-04-15T11:25:29;94447.13;;;17.79;41.01
28626;BME280;18905;42.668;23.364;2023-04-15T11:27:55;94436.38;;;17.96;41.13
28626;BME280;18905;42.668;23.364;2023-04-15T11:30:23;94445.41;;;18.07;40.30
28626;BME280;18905;42.668;23.364;2023-04-15T11:32:49;94455.16;;;18.62;39.85
28626;BME280;18905;42.668;23.364;2023-04-15T11:35:16;94467.56;;;19.24;38.98
28626;BME280;18905;42.668;23.364;2023-04-15T11:37:45;94468.03;;;19.65;39.26
28626;BME280;18905;42.668;23.364;2023-04-15T11:40:11;94461.78;;;19.89;38.55
28626;BME280;18905;42.668;23.364;2023-04-15T11:42:38;94467.19;;;19.36;38.60
28626;BME280;18905;42.668;23.364;2023-04-15T11:45:08;94458.63;;;19.45;38.58
28626;BME280;18905;42.668;23.364;2023-04-15T11:47:38;94450.00;;;19.39;33.80
28626;BME280;18905;42.668;23.364;2023-04-15T11:50:17;94439.31;;;19.10;34.16
28626;BME280;18905;42.668;23.364;2023-04-15T11:55:23;94425.75;;;19.31;35.51
28626;BME280;18905;42.668;23.364;2023-04-15T11:58:07;94438.72;;;19.79;35.20
28626;BME280;18905;42.668;23.364;2023-04-15T12:00:34;94439.88;;;19.82;35.69
28626;BME280;18905;42.668;23.364;2023-04-15T12:09:03;94446.09;;;19.33;34.60
28626;BME280;18905;42.668;23.364;2023-04-15T12:11:46;94448.78;;;19.23;33.65
28626;BME280;18905;42.668;23.364;2023-04-15T12:14:25;94453.13;;;19.38;33.46
28626;BME280;18905;42.668;23.364;2023-04-15T12:16:55;94445.69;;;19.38;33.32
28626;BME280;18905;42.668;23.364;2023-04-15T12:19:27;94430.81;;;19.25;33.79
28626;BME280;18905;42.668;23.364;2023-04-15T12:22:19;94437.50;;;19.38;33.15
28626;BME280;18905;42.668;23.364;2023-04-15T12:24:44;94436.34;;;19.46;32.77
28626;BME280;18905;42.668;23.364;2023-04-15T12:27:12;94422.16;;;19.13;32.56
28626;BME280;18905;42.668;23.364;2023-04-15T12:29:40;94442.22;;;19.69;32.78
28626;BME280;18905;42.668;23.364;2023-04-15T12:32:11;94434.75;;;19.45;32.70
28626;BME280;18905;42.668;23.364;2023-04-15T12:34:51;94441.03;;;19.63;34.13
28626;BME280;18905;42.668;23.364;2023-04-15T12:37:17;94435.56;;;19.63;33.62
28626;BME280;18905;42.668;23.364;2023-04-15T12:39:44;94445.34;;;19.57;33.56
28626;BME280;18905;42.668;23.364;2023-04-15T12:42:10;94446.16;;;19.86;33.28
28626;BME280;18905;42.668;23.364;2023-04-15T12:44:36;94443.00;;;19.70;33.09
28626;BME280;18905;42.668;23.364;2023-04-15T12:47:02;94447.28;;;19.57;32.73
28626;BME280;18905;42.668;23.364;2023-04-15T12:49:28;94454.69;;;19.35;34.10
28626;BME280;18905;42.668;23.364;2023-04-15T12:51:55;94448.72;;;19.05;34.58
28626;BME280;18905;42.668;23.364;2023-04-15T12:54:22;94451.19;;;19.52;34.18
28626;BME280;18905;42.668;23.364;2023-04-15T12:56:48;94449.63;;;19.44;33.94
28626;BME280;18905;42.668;23.364;2023-04-15T12:59:15;94457.09;;;19.58;34.67
28626;BME280;18905;42.668;23.364;2023-04-15T13:01:41;94448.84;;;19.51;34.32
28626;BME280;18905;42.668;23.364;2023-04-15T13:04:07;94450.81;;;19.57;34.33
28626;BME280;18905;42.668;23.364;2023-04-15T13:06:33;94442.22;;;20.32;68.10
28626;BME280;18905;42.668;23.364;2023-04-15T13:08:59;94445.50;;;21.21;56.76
28626;BME280;18905;42.668;23.364;2023-04-15T13:11:26;94452.31;;;21.64;59.33
28626;BME280;18905;42.668;23.364;2023-04-15T13:13:53;94446.84;;;22.15;52.20
28626;BME280;18905;42.668;23.364;2023-04-15T13:16:19;94444.31;;;22.78;44.60
28626;BME280;18905;42.668;23.364;2023-04-15T13:18:44;94437.41;;;22.97;44.27
28626;BME280;18905;42.668;23.364;2023-04-15T13:21:11;94432.50;;;22.41;35.46